WXM80 ListenWXM80 Stop

You find our weather info also at:

UK Metoffice

WeatherCloud

Weather Underground

Northeastern Weather Network

AWEKAS

Citizen Weather Observer Program (CWOP)

HAMweather, WeatherForYou, PWS Weather


Weather Underground History page Text

Daily Summary for October 17, 2017 Units:  Both    English   Metric
« Previous Day
Next Day »
Daily Weekly Monthly Yearly Custom
  High: Low: Average:
Temperature: 60.0 °F /  15.6 °C 45.5 °F /  7.5 °C 51 °F /  10.6 °C
Dew Point: 44.3 °F /  6.8 °C 35.3 °F /  1.8 °C 39.6 °F /  4.2 °C
Humidity: 79 % 44 % 66 %
Wind Speed: 10.6 mph /  17.1 km/h - 3.3 mph /  5.3 km/h
Wind Gust: 18.4 mph /  29.6 km/h - -
Wind:- - SSE
Pressure: 30.30 in /  1026 hPa 30.06 in /  1017.8 hPa -
Precipitation: 0.00 in /  0 mm    
Historical Graphs
 
 
Tabular Data for October 17, 2017
Time Temperature Dew Point Pressure Wind Wind Speed Wind Gust Humidity Rainfall Rate (Hourly)
00:04 49.4 °F /  9.7 °C 39.7 °F /  4.3 °C 30.15 in /  1020.9 hPa NNE 5.2 mph /  8.4 km/h 11.5 mph /  18.5 km/h 69 % 0.00 in /  0 mm
00:09 49.3 °F /  9.6 °C 39.9 °F /  4.4 °C 30.15 in /  1020.9 hPa North 8.4 mph /  13.5 km/h 12.7 mph /  20.4 km/h 70 % 0.00 in /  0 mm
00:14 49.2 °F /  9.6 °C 39.5 °F /  4.2 °C 30.15 in /  1020.9 hPa NE 6.2 mph /  10 km/h 16.1 mph /  25.9 km/h 69 % 0.00 in /  0 mm
00:20 49.1 °F /  9.5 °C 39.0 °F /  3.9 °C 30.16 in /  1021.2 hPa NNE 9.3 mph /  15 km/h 17.3 mph /  27.8 km/h 68 % 0.00 in /  0 mm
00:25 49.1 °F /  9.5 °C 39.7 °F /  4.3 °C 30.16 in /  1021.2 hPa North 5.6 mph /  9 km/h 10.4 mph /  16.7 km/h 70 % 0.00 in /  0 mm
00:30 49.0 °F /  9.4 °C 39.6 °F /  4.2 °C 30.16 in /  1021.2 hPa NNW 6.0 mph /  9.7 km/h 11.5 mph /  18.5 km/h 70 % 0.00 in /  0 mm
00:35 48.9 °F /  9.4 °C 39.5 °F /  4.2 °C 30.15 in /  1020.9 hPa North 6.7 mph /  10.8 km/h 12.7 mph /  20.4 km/h 70 % 0.00 in /  0 mm
00:40 48.9 °F /  9.4 °C 39.9 °F /  4.4 °C 30.15 in /  1020.9 hPa NNE 7.6 mph /  12.2 km/h 13.8 mph /  22.2 km/h 71 % 0.00 in /  0 mm
00:45 48.8 °F /  9.3 °C 39.8 °F /  4.3 °C 30.15 in /  1020.9 hPa North 3.1 mph /  5 km/h 9.2 mph /  14.8 km/h 71 % 0.00 in /  0 mm
00:50 48.7 °F /  9.3 °C 39.7 °F /  4.3 °C 30.16 in /  1021.2 hPa NNE 4.7 mph /  7.6 km/h 11.5 mph /  18.5 km/h 71 % 0.00 in /  0 mm
00:55 48.7 °F /  9.3 °C 40.1 °F /  4.5 °C 30.16 in /  1021.2 hPa NNE 6.0 mph /  9.7 km/h 10.4 mph /  16.7 km/h 72 % 0.00 in /  0 mm
01:00 48.6 °F /  9.2 °C 40.0 °F /  4.4 °C 30.15 in /  1020.9 hPa West 5.3 mph /  8.5 km/h 11.5 mph /  18.5 km/h 72 % 0.00 in /  0 mm
01:05 48.5 °F /  9.2 °C 39.9 °F /  4.4 °C 30.16 in /  1021.2 hPa North 5.0 mph /  8 km/h 11.5 mph /  18.5 km/h 72 % 0.00 in /  0 mm
01:10 48.4 °F /  9.1 °C 39.8 °F /  4.3 °C 30.16 in /  1021.2 hPa NNW 8.1 mph /  13 km/h 12.7 mph /  20.4 km/h 72 % 0.00 in /  0 mm
01:15 48.3 °F /  9.1 °C 39.0 °F /  3.9 °C 30.16 in /  1021.2 hPa North 5.1 mph /  8.2 km/h 9.2 mph /  14.8 km/h 70 % 0.00 in /  0 mm
01:20 48.2 °F /  9 °C 39.2 °F /  4 °C 30.16 in /  1021.2 hPa NNE 9.2 mph /  14.8 km/h 12.7 mph /  20.4 km/h 71 % 0.00 in /  0 mm
01:25 48.1 °F /  8.9 °C 39.1 °F /  3.9 °C 30.16 in /  1021.2 hPa NNW 8.6 mph /  13.8 km/h 13.0 mph /  20.9 km/h 71 % 0.00 in /  0 mm
01:30 48.1 °F /  8.9 °C 39.5 °F /  4.2 °C 30.16 in /  1021.2 hPa NNE 5.2 mph /  8.4 km/h 8.1 mph /  13 km/h 72 % 0.00 in /  0 mm
01:35 48.0 °F /  8.9 °C 39.4 °F /  4.1 °C 30.16 in /  1021.2 hPa NNE 7.5 mph /  12.1 km/h 11.5 mph /  18.5 km/h 72 % 0.00 in /  0 mm
01:40 48.0 °F /  8.9 °C 39.0 °F /  3.9 °C 30.16 in /  1021.2 hPa North 6.9 mph /  11.1 km/h 15.0 mph /  24.1 km/h 71 % 0.00 in /  0 mm
01:45 47.9 °F /  8.8 °C 39.3 °F /  4.1 °C 30.17 in /  1021.6 hPa North 6.2 mph /  10 km/h 11.5 mph /  18.5 km/h 72 % 0.00 in /  0 mm
01:50 47.9 °F /  8.8 °C 38.6 °F /  3.7 °C 30.17 in /  1021.6 hPa NNE 8.9 mph /  14.3 km/h 18.4 mph /  29.6 km/h 70 % 0.00 in /  0 mm
01:56 47.8 °F /  8.8 °C 38.8 °F /  3.8 °C 30.17 in /  1021.6 hPa North 7.0 mph /  11.3 km/h 14.0 mph /  22.5 km/h 71 % 0.00 in /  0 mm
02:01 47.8 °F /  8.8 °C 38.5 °F /  3.6 °C 30.17 in /  1021.6 hPa NNE 6.2 mph /  10 km/h 11.5 mph /  18.5 km/h 70 % 0.00 in /  0 mm
02:06 47.8 °F /  8.8 °C 38.5 °F /  3.6 °C 30.18 in /  1021.9 hPa North 6.0 mph /  9.7 km/h 11.5 mph /  18.5 km/h 70 % 0.00 in /  0 mm
02:11 47.7 °F /  8.7 °C 38.4 °F /  3.6 °C 30.18 in /  1021.9 hPa NNE 7.5 mph /  12.1 km/h 11.5 mph /  18.5 km/h 70 % 0.00 in /  0 mm
02:16 47.7 °F /  8.7 °C 38.4 °F /  3.6 °C 30.18 in /  1021.9 hPa NNW 10.6 mph /  17.1 km/h 18.0 mph /  29 km/h 70 % 0.00 in /  0 mm
02:21 47.6 °F /  8.7 °C 37.9 °F /  3.3 °C 30.18 in /  1021.9 hPa NNE 6.4 mph /  10.3 km/h 11.5 mph /  18.5 km/h 69 % 0.00 in /  0 mm
02:26 47.6 °F /  8.7 °C 37.9 °F /  3.3 °C 30.18 in /  1021.9 hPa NNE 6.4 mph /  10.3 km/h 12.0 mph /  19.3 km/h 69 % 0.00 in /  0 mm
02:31 47.6 °F /  8.7 °C 37.9 °F /  3.3 °C 30.18 in /  1021.9 hPa NNE 7.1 mph /  11.4 km/h 10.4 mph /  16.7 km/h 69 % 0.00 in /  0 mm
02:36 47.6 °F /  8.7 °C 38.3 °F /  3.5 °C 30.18 in /  1021.9 hPa ENE 6.9 mph /  11.1 km/h 11.0 mph /  17.7 km/h 70 % 0.00 in /  0 mm
02:41 47.5 °F /  8.6 °C 37.5 °F /  3.1 °C 30.18 in /  1021.9 hPa North 6.0 mph /  9.7 km/h 9.2 mph /  14.8 km/h 68 % 0.00 in /  0 mm
02:46 47.5 °F /  8.6 °C 37.8 °F /  3.2 °C 30.17 in /  1021.6 hPa NE 6.3 mph /  10.1 km/h 13.8 mph /  22.2 km/h 69 % 0.00 in /  0 mm
02:51 47.5 °F /  8.6 °C 38.2 °F /  3.4 °C 30.18 in /  1021.9 hPa NNE 7.8 mph /  12.6 km/h 13.0 mph /  20.9 km/h 70 % 0.00 in /  0 mm
02:56 47.5 °F /  8.6 °C 38.2 °F /  3.4 °C 30.17 in /  1021.6 hPa NNW 7.6 mph /  12.2 km/h 11.5 mph /  18.5 km/h 70 % 0.00 in /  0 mm
03:01 47.4 °F /  8.6 °C 37.4 °F /  3 °C 30.18 in /  1021.9 hPa North 7.2 mph /  11.6 km/h 13.8 mph /  22.2 km/h 68 % 0.00 in /  0 mm
03:06 47.4 °F /  8.6 °C 38.1 °F /  3.4 °C 30.18 in /  1021.9 hPa NNE 7.9 mph /  12.7 km/h 12.0 mph /  19.3 km/h 70 % 0.00 in /  0 mm
03:12 47.3 °F /  8.5 °C 38.4 °F /  3.6 °C 30.17 in /  1021.6 hPa NNE 8.3 mph /  13.4 km/h 15.0 mph /  24.1 km/h 71 % 0.00 in /  0 mm
03:17 47.3 °F /  8.5 °C 39.1 °F /  3.9 °C 30.17 in /  1021.6 hPa NNE 7.6 mph /  12.2 km/h 12.7 mph /  20.4 km/h 73 % 0.00 in /  0 mm
03:22 47.2 °F /  8.4 °C 39.0 °F /  3.9 °C 30.18 in /  1021.9 hPa NNE 7.2 mph /  11.6 km/h 12.7 mph /  20.4 km/h 73 % 0.00 in /  0 mm
03:27 47.1 °F /  8.4 °C 38.5 °F /  3.6 °C 30.17 in /  1021.6 hPa North 9.8 mph /  15.8 km/h 15.0 mph /  24.1 km/h 72 % 0.00 in /  0 mm
03:32 47.1 °F /  8.4 °C 39.2 °F /  4 °C 30.17 in /  1021.6 hPa NNW 5.2 mph /  8.4 km/h 10.4 mph /  16.7 km/h 74 % 0.00 in /  0 mm
03:37 47.0 °F /  8.3 °C 38.4 °F /  3.6 °C 30.18 in /  1021.9 hPa NE 5.2 mph /  8.4 km/h 11.5 mph /  18.5 km/h 72 % 0.00 in /  0 mm
03:42 46.9 °F /  8.3 °C 38.7 °F /  3.7 °C 30.18 in /  1021.9 hPa NNE 7.2 mph /  11.6 km/h 12.7 mph /  20.4 km/h 73 % 0.00 in /  0 mm
03:47 46.9 °F /  8.3 °C 39.0 °F /  3.9 °C 30.18 in /  1021.9 hPa NNE 9.0 mph /  14.5 km/h 11.5 mph /  18.5 km/h 74 % 0.00 in /  0 mm
03:52 46.9 °F /  8.3 °C 39.4 °F /  4.1 °C 30.18 in /  1021.9 hPa NNW 8.8 mph /  14.2 km/h 13.8 mph /  22.2 km/h 75 % 0.00 in /  0 mm
03:57 46.8 °F /  8.2 °C 39.3 °F /  4.1 °C 30.18 in /  1021.9 hPa North 7.3 mph /  11.7 km/h 9.0 mph /  14.5 km/h 75 % 0.00 in /  0 mm
04:02 46.8 °F /  8.2 °C 38.6 °F /  3.7 °C 30.18 in /  1021.9 hPa NNE 6.6 mph /  10.6 km/h 12.7 mph /  20.4 km/h 73 % 0.00 in /  0 mm
04:07 46.7 °F /  8.2 °C 38.5 °F /  3.6 °C 30.19 in /  1022.2 hPa North 9.4 mph /  15.1 km/h 11.5 mph /  18.5 km/h 73 % 0.00 in /  0 mm
04:12 46.7 °F /  8.2 °C 38.1 °F /  3.4 °C 30.21 in /  1022.9 hPa North 5.2 mph /  8.4 km/h 11.5 mph /  18.5 km/h 72 % 0.00 in /  0 mm
04:17 46.7 °F /  8.2 °C 39.2 °F /  4 °C 30.21 in /  1022.9 hPa NNE 8.2 mph /  13.2 km/h 16.0 mph /  25.7 km/h 75 % 0.00 in /  0 mm
04:22 46.6 °F /  8.1 °C 39.1 °F /  3.9 °C 30.20 in /  1022.6 hPa NE 5.5 mph /  8.9 km/h 11.5 mph /  18.5 km/h 75 % 0.00 in /  0 mm
04:26 46.5 °F /  8.1 °C 39.3 °F /  4.1 °C 30.20 in /  1022.6 hPa North 7.9 mph /  12.7 km/h 12.7 mph /  20.4 km/h 76 % 0.00 in /  0 mm
04:31 46.4 °F /  8 °C 39.2 °F /  4 °C 30.20 in /  1022.6 hPa NNE 6.7 mph /  10.8 km/h 11.5 mph /  18.5 km/h 76 % 0.00 in /  0 mm
04:36 46.3 °F /  7.9 °C 39.8 °F /  4.3 °C 30.20 in /  1022.6 hPa NNE 4.9 mph /  7.9 km/h 10.4 mph /  16.7 km/h 78 % 0.00 in /  0 mm
04:41 46.1 °F /  7.8 °C 38.3 °F /  3.5 °C 30.20 in /  1022.6 hPa NNE 7.7 mph /  12.4 km/h 14.0 mph /  22.5 km/h 74 % 0.00 in /  0 mm
04:46 46.0 °F /  7.8 °C 38.5 °F /  3.6 °C 30.21 in /  1022.9 hPa North 6.0 mph /  9.7 km/h 10.4 mph /  16.7 km/h 75 % 0.00 in /  0 mm
04:51 46.0 °F /  7.8 °C 38.5 °F /  3.6 °C 30.20 in /  1022.6 hPa NNE 7.4 mph /  11.9 km/h 11.5 mph /  18.5 km/h 75 % 0.00 in /  0 mm
04:56 46.0 °F /  7.8 °C 38.5 °F /  3.6 °C 30.21 in /  1022.9 hPa North 7.4 mph /  11.9 km/h 8.1 mph /  13 km/h 75 % 0.00 in /  0 mm
05:01 46.0 °F /  7.8 °C 38.5 °F /  3.6 °C 30.21 in /  1022.9 hPa North 4.1 mph /  6.6 km/h 10.4 mph /  16.7 km/h 75 % 0.00 in /  0 mm
05:06 45.9 °F /  7.7 °C 38.4 °F /  3.6 °C 30.21 in /  1022.9 hPa North 8.2 mph /  13.2 km/h 12.7 mph /  20.4 km/h 75 % 0.00 in /  0 mm
05:11 45.9 °F /  7.7 °C 38.8 °F /  3.8 °C 30.21 in /  1022.9 hPa NE 6.5 mph /  10.5 km/h 12.0 mph /  19.3 km/h 76 % 0.00 in /  0 mm
05:16 45.9 °F /  7.7 °C 39.1 °F /  3.9 °C 30.21 in /  1022.9 hPa NNE 9.2 mph /  14.8 km/h 12.7 mph /  20.4 km/h 77 % 0.00 in /  0 mm
05:22 45.9 °F /  7.7 °C 38.4 °F /  3.6 °C 30.21 in /  1022.9 hPa North 5.9 mph /  9.5 km/h 13.8 mph /  22.2 km/h 75 % 0.00 in /  0 mm
05:27 46.0 °F /  7.8 °C 38.5 °F /  3.6 °C 30.21 in /  1022.9 hPa North 4.9 mph /  7.9 km/h 11.5 mph /  18.5 km/h 75 % 0.00 in /  0 mm
05:32 46.0 °F /  7.8 °C 38.9 °F /  3.8 °C 30.22 in /  1023.2 hPa North 5.4 mph /  8.7 km/h 12.0 mph /  19.3 km/h 76 % 0.00 in /  0 mm
05:37 46.0 °F /  7.8 °C 39.2 °F /  4 °C 30.22 in /  1023.2 hPa NNE 6.4 mph /  10.3 km/h 8.1 mph /  13 km/h 77 % 0.00 in /  0 mm
05:42 45.9 °F /  7.7 °C 38.4 °F /  3.6 °C 30.22 in /  1023.2 hPa North 6.0 mph /  9.7 km/h 9.2 mph /  14.8 km/h 75 % 0.00 in /  0 mm
05:47 45.9 °F /  7.7 °C 38.4 °F /  3.6 °C 30.22 in /  1023.2 hPa NE 5.1 mph /  8.2 km/h 11.5 mph /  18.5 km/h 75 % 0.00 in /  0 mm
05:52 45.8 °F /  7.7 °C 38.3 °F /  3.5 °C 30.23 in /  1023.6 hPa NNE 5.8 mph /  9.3 km/h 10.4 mph /  16.7 km/h 75 % 0.00 in /  0 mm
05:57 45.8 °F /  7.7 °C 38.3 °F /  3.5 °C 30.23 in /  1023.6 hPa NNE 4.4 mph /  7.1 km/h 8.1 mph /  13 km/h 75 % 0.00 in /  0 mm
06:02 45.8 °F /  7.7 °C 38.3 °F /  3.5 °C 30.22 in /  1023.2 hPa North 6.2 mph /  10 km/h 11.5 mph /  18.5 km/h 75 % 0.00 in /  0 mm
06:07 45.8 °F /  7.7 °C 38.0 °F /  3.3 °C 30.23 in /  1023.6 hPa North 7.1 mph /  11.4 km/h 11.5 mph /  18.5 km/h 74 % 0.00 in /  0 mm
06:12 45.8 °F /  7.7 °C 38.3 °F /  3.5 °C 30.23 in /  1023.6 hPa NNE 4.3 mph /  6.9 km/h 8.1 mph /  13 km/h 75 % 0.00 in /  0 mm
06:17 45.8 °F /  7.7 °C 38.7 °F /  3.7 °C 30.23 in /  1023.6 hPa North 5.2 mph /  8.4 km/h 9.2 mph /  14.8 km/h 76 % 0.00 in /  0 mm
06:27 45.8 °F /  7.7 °C 38.7 °F /  3.7 °C 30.24 in /  1023.9 hPa NE 6.9 mph /  11.1 km/h 10.4 mph /  16.7 km/h 76 % 0.00 in /  0 mm
06:32 45.8 °F /  7.7 °C 38.3 °F /  3.5 °C 30.24 in /  1023.9 hPa North 8.0 mph /  12.9 km/h 11.5 mph /  18.5 km/h 75 % 0.00 in /  0 mm
06:37 45.8 °F /  7.7 °C 38.3 °F /  3.5 °C 30.24 in /  1023.9 hPa NNE 5.7 mph /  9.2 km/h 11.5 mph /  18.5 km/h 75 % 0.00 in /  0 mm
06:42 45.9 °F /  7.7 °C 38.1 °F /  3.4 °C 30.24 in /  1023.9 hPa NNE 7.7 mph /  12.4 km/h 12.7 mph /  20.4 km/h 74 % 0.00 in /  0 mm
06:47 46.0 °F /  7.8 °C 38.9 °F /  3.8 °C 30.24 in /  1023.9 hPa NNE 6.7 mph /  10.8 km/h 15.0 mph /  24.1 km/h 76 % 0.00 in /  0 mm
06:52 46.0 °F /  7.8 °C 38.2 °F /  3.4 °C 30.24 in /  1023.9 hPa NNE 8.3 mph /  13.4 km/h 12.7 mph /  20.4 km/h 74 % 0.00 in /  0 mm
06:57 46.0 °F /  7.8 °C 38.2 °F /  3.4 °C 30.25 in /  1024.3 hPa North 8.6 mph /  13.8 km/h 16.1 mph /  25.9 km/h 74 % 0.00 in /  0 mm
07:02 46.0 °F /  7.8 °C 36.0 °F /  2.2 °C 30.24 in /  1023.9 hPa North 9.6 mph /  15.4 km/h 16.1 mph /  25.9 km/h 68 % 0.00 in /  0 mm
07:07 45.9 °F /  7.7 °C 36.3 °F /  2.4 °C 30.25 in /  1024.3 hPa North 7.9 mph /  12.7 km/h 13.8 mph /  22.2 km/h 69 % 0.00 in /  0 mm
07:12 45.8 °F /  7.7 °C 35.5 °F /  1.9 °C 30.25 in /  1024.3 hPa North 6.4 mph /  10.3 km/h 11.5 mph /  18.5 km/h 67 % 0.00 in /  0 mm
07:17 45.8 °F /  7.7 °C 36.9 °F /  2.7 °C 30.25 in /  1024.3 hPa North 7.0 mph /  11.3 km/h 10.4 mph /  16.7 km/h 71 % 0.00 in /  0 mm
07:23 45.7 °F /  7.6 °C 37.5 °F /  3.1 °C 30.27 in /  1024.9 hPa North 6.7 mph /  10.8 km/h 11.5 mph /  18.5 km/h 73 % 0.00 in /  0 mm
07:28 45.7 °F /  7.6 °C 37.9 °F /  3.3 °C 30.26 in /  1024.6 hPa NNE 5.5 mph /  8.9 km/h 8.1 mph /  13 km/h 74 % 0.00 in /  0 mm
07:33 45.7 °F /  7.6 °C 37.5 °F /  3.1 °C 30.25 in /  1024.3 hPa NNE 5.2 mph /  8.4 km/h 11.5 mph /  18.5 km/h 73 % 0.00 in /  0 mm
07:38 45.6 °F /  7.6 °C 37.1 °F /  2.8 °C 30.25 in /  1024.3 hPa North 3.6 mph /  5.8 km/h 9.2 mph /  14.8 km/h 72 % 0.00 in /  0 mm
07:43 45.5 °F /  7.5 °C 36.6 °F /  2.6 °C 30.25 in /  1024.3 hPa North 4.4 mph /  7.1 km/h 9.0 mph /  14.5 km/h 71 % 0.00 in /  0 mm
07:48 45.6 °F /  7.6 °C 36.4 °F /  2.4 °C 30.26 in /  1024.6 hPa NNE 5.1 mph /  8.2 km/h 6.9 mph /  11.1 km/h 70 % 0.00 in /  0 mm
07:53 45.6 °F /  7.6 °C 35.6 °F /  2 °C 30.26 in /  1024.6 hPa NNW 6.0 mph /  9.7 km/h 11.5 mph /  18.5 km/h 68 % 0.00 in /  0 mm
07:58 45.6 °F /  7.6 °C 35.3 °F /  1.8 °C 30.26 in /  1024.6 hPa NNE 6.5 mph /  10.5 km/h 8.1 mph /  13 km/h 67 % 0.00 in /  0 mm
08:03 45.8 °F /  7.7 °C 36.6 °F /  2.6 °C 30.26 in /  1024.6 hPa NNW 3.9 mph /  6.3 km/h 11.5 mph /  18.5 km/h 70 % 0.00 in /  0 mm
08:08 45.8 °F /  7.7 °C 35.8 °F /  2.1 °C 30.26 in /  1024.6 hPa North 7.1 mph /  11.4 km/h 10.4 mph /  16.7 km/h 68 % 0.00 in /  0 mm
08:13 45.8 °F /  7.7 °C 36.6 °F /  2.6 °C 30.27 in /  1024.9 hPa NNE 4.9 mph /  7.9 km/h 9.2 mph /  14.8 km/h 70 % 0.00 in /  0 mm
08:18 45.9 °F /  7.7 °C 37.0 °F /  2.8 °C 30.26 in /  1024.6 hPa NNW 5.6 mph /  9 km/h 10.4 mph /  16.7 km/h 71 % 0.00 in /  0 mm
08:23 45.9 °F /  7.7 °C 37.4 °F /  3 °C 30.26 in /  1024.6 hPa North 8.2 mph /  13.2 km/h 11.5 mph /  18.5 km/h 72 % 0.00 in /  0 mm
08:28 46.1 °F /  7.8 °C 38.3 °F /  3.5 °C 30.26 in /  1024.6 hPa NW 6.3 mph /  10.1 km/h 9.0 mph /  14.5 km/h 74 % 0.00 in /  0 mm
08:33 46.1 °F /  7.8 °C 37.6 °F /  3.1 °C 30.27 in /  1024.9 hPa North 3.3 mph /  5.3 km/h 9.2 mph /  14.8 km/h 72 % 0.00 in /  0 mm
08:38 46.1 °F /  7.8 °C 37.2 °F /  2.9 °C 30.27 in /  1024.9 hPa NNE 5.0 mph /  8 km/h 8.1 mph /  13 km/h 71 % 0.00 in /  0 mm
08:43 46.3 °F /  7.9 °C 38.1 °F /  3.4 °C 30.27 in /  1024.9 hPa NNE 5.2 mph /  8.4 km/h 9.2 mph /  14.8 km/h 73 % 0.00 in /  0 mm
08:48 46.3 °F /  7.9 °C 38.5 °F /  3.6 °C 30.27 in /  1024.9 hPa North 4.8 mph /  7.7 km/h 8.1 mph /  13 km/h 74 % 0.00 in /  0 mm
08:53 46.4 °F /  8 °C 38.6 °F /  3.7 °C 30.28 in /  1025.3 hPa NNE 6.2 mph /  10 km/h 10.0 mph /  16.1 km/h 74 % 0.00 in /  0 mm
08:58 46.4 °F /  8 °C 38.6 °F /  3.7 °C 30.27 in /  1024.9 hPa NE 5.1 mph /  8.2 km/h 10.4 mph /  16.7 km/h 74 % 0.00 in /  0 mm
09:03 46.5 °F /  8.1 °C 38.3 °F /  3.5 °C 30.28 in /  1025.3 hPa NNE 3.7 mph /  6 km/h 5.0 mph /  8 km/h 73 % 0.00 in /  0 mm
09:07 46.5 °F /  8.1 °C 38.7 °F /  3.7 °C 30.27 in /  1024.9 hPa NNE 5.5 mph /  8.9 km/h 11.5 mph /  18.5 km/h 74 % 0.00 in /  0 mm
09:12 46.5 °F /  8.1 °C 38.3 °F /  3.5 °C 30.27 in /  1024.9 hPa NNE 6.9 mph /  11.1 km/h 11.5 mph /  18.5 km/h 73 % 0.00 in /  0 mm
09:17 46.5 °F /  8.1 °C 38.7 °F /  3.7 °C 30.28 in /  1025.3 hPa NNE 4.1 mph /  6.6 km/h 9.2 mph /  14.8 km/h 74 % 0.00 in /  0 mm
09:22 46.5 °F /  8.1 °C 38.7 °F /  3.7 °C 30.27 in /  1024.9 hPa NNE 8.2 mph /  13.2 km/h 11.0 mph /  17.7 km/h 74 % 0.00 in /  0 mm
09:27 46.6 °F /  8.1 °C 39.1 °F /  3.9 °C 30.27 in /  1024.9 hPa NE 6.2 mph /  10 km/h 10.4 mph /  16.7 km/h 75 % 0.00 in /  0 mm
09:32 46.8 °F /  8.2 °C 38.9 °F /  3.8 °C 30.27 in /  1024.9 hPa North 3.7 mph /  6 km/h 6.0 mph /  9.7 km/h 74 % 0.00 in /  0 mm
09:37 46.9 °F /  8.3 °C 39.4 °F /  4.1 °C 30.27 in /  1024.9 hPa North 2.6 mph /  4.2 km/h 6.9 mph /  11.1 km/h 75 % 0.00 in /  0 mm
09:42 47.1 °F /  8.4 °C 39.2 °F /  4 °C 30.27 in /  1024.9 hPa NNE 3.5 mph /  5.6 km/h 8.1 mph /  13 km/h 74 % 0.00 in /  0 mm
09:47 47.2 °F /  8.4 °C 39.3 °F /  4.1 °C 30.27 in /  1024.9 hPa NNE 2.3 mph /  3.7 km/h 6.9 mph /  11.1 km/h 74 % 0.00 in /  0 mm
09:52 47.4 °F /  8.6 °C 39.5 °F /  4.2 °C 30.27 in /  1024.9 hPa NNE 4.6 mph /  7.4 km/h 6.9 mph /  11.1 km/h 74 % 0.00 in /  0 mm
09:57 47.8 °F /  8.8 °C 39.2 °F /  4 °C 30.27 in /  1024.9 hPa NNE 3.4 mph /  5.5 km/h 8.1 mph /  13 km/h 72 % 0.00 in /  0 mm
10:02 48.4 °F /  9.1 °C 39.4 °F /  4.1 °C 30.27 in /  1024.9 hPa North 3.6 mph /  5.8 km/h 9.2 mph /  14.8 km/h 71 % 0.00 in /  0 mm
10:07 49.0 °F /  9.4 °C 38.9 °F /  3.8 °C 30.27 in /  1024.9 hPa ENE 3.5 mph /  5.6 km/h 5.0 mph /  8 km/h 68 % 0.00 in /  0 mm
10:12 49.4 °F /  9.7 °C 38.9 °F /  3.8 °C 30.27 in /  1024.9 hPa NNW 5.9 mph /  9.5 km/h 8.0 mph /  12.9 km/h 67 % 0.00 in /  0 mm
10:17 49.6 °F /  9.8 °C 38.7 °F /  3.7 °C 30.26 in /  1024.6 hPa NNE 6.6 mph /  10.6 km/h 8.1 mph /  13 km/h 66 % 0.00 in /  0 mm
10:19 49.6 °F /  9.8 °C 38.7 °F /  3.7 °C 30.27 in /  1024.9 hPa North 4.8 mph /  7.7 km/h 7.0 mph /  11.3 km/h 66 % 0.00 in /  0 mm
10:24 49.7 °F /  9.8 °C 38.0 °F /  3.3 °C 30.26 in /  1024.6 hPa NE 3.2 mph /  5.1 km/h 10.4 mph /  16.7 km/h 64 % 0.00 in /  0 mm
10:29 49.9 °F /  9.9 °C 39.0 °F /  3.9 °C 30.26 in /  1024.6 hPa NE 3.2 mph /  5.1 km/h 4.6 mph /  7.4 km/h 66 % 0.00 in /  0 mm
10:34 49.8 °F /  9.9 °C 38.9 °F /  3.8 °C 30.26 in /  1024.6 hPa ENE 3.8 mph /  6.1 km/h 10.4 mph /  16.7 km/h 66 % 0.00 in /  0 mm
10:35 49.9 °F /  9.9 °C 39.0 °F /  3.9 °C 30.26 in /  1024.6 hPa ENE 3.8 mph /  6.1 km/h 10.4 mph /  16.7 km/h 66 % 0.00 in /  0 mm
10:45 49.7 °F /  9.8 °C 38.8 °F /  3.8 °C 30.26 in /  1024.6 hPa NNE 5.7 mph /  9.2 km/h 9.2 mph /  14.8 km/h 66 % 0.00 in /  0 mm
10:50 49.7 °F /  9.8 °C 38.0 °F /  3.3 °C 30.26 in /  1024.6 hPa NE 0.9 mph /  1.4 km/h 3.5 mph /  5.6 km/h 64 % 0.00 in /  0 mm
10:55 49.7 °F /  9.8 °C 38.0 °F /  3.3 °C 30.26 in /  1024.6 hPa NNE 3.3 mph /  5.3 km/h 6.0 mph /  9.7 km/h 64 % 0.00 in /  0 mm
11:00 49.8 °F /  9.9 °C 37.7 °F /  3.2 °C 30.26 in /  1024.6 hPa NNE 3.9 mph /  6.3 km/h 8.0 mph /  12.9 km/h 63 % 0.00 in /  0 mm
11:05 49.9 °F /  9.9 °C 37.4 °F /  3 °C 30.25 in /  1024.3 hPa North 0.2 mph /  0.3 km/h 3.5 mph /  5.6 km/h 62 % 0.00 in /  0 mm
11:10 50.1 °F /  10.1 °C 38.0 °F /  3.3 °C 30.26 in /  1024.6 hPa North 2.5 mph /  4 km/h 4.6 mph /  7.4 km/h 63 % 0.00 in /  0 mm
11:15 50.4 °F /  10.2 °C 38.3 °F /  3.5 °C 30.26 in /  1024.6 hPa NE 1.5 mph /  2.4 km/h 3.5 mph /  5.6 km/h 63 % 0.00 in /  0 mm
11:20 50.9 °F /  10.5 °C 37.5 °F /  3.1 °C 30.25 in /  1024.3 hPa NE 3.2 mph /  5.1 km/h 4.6 mph /  7.4 km/h 60 % 0.00 in /  0 mm
11:25 51.7 °F /  10.9 °C 36.5 °F /  2.5 °C 30.25 in /  1024.3 hPa ENE 2.6 mph /  4.2 km/h 4.6 mph /  7.4 km/h 56 % 0.00 in /  0 mm
11:30 52.7 °F /  11.5 °C 38.8 °F /  3.8 °C 30.26 in /  1024.6 hPa North 4.0 mph /  6.4 km/h 5.8 mph /  9.3 km/h 59 % 0.00 in /  0 mm
11:35 53.9 °F /  12.2 °C 39.5 °F /  4.2 °C 30.26 in /  1024.6 hPa NNE 2.5 mph /  4 km/h 5.8 mph /  9.3 km/h 58 % 0.00 in /  0 mm
11:40 55.0 °F /  12.8 °C 40.9 °F /  4.9 °C 30.26 in /  1024.6 hPa North 2.5 mph /  4 km/h 5.8 mph /  9.3 km/h 59 % 0.00 in /  0 mm
11:45 55.8 °F /  13.2 °C 40.8 °F /  4.9 °C 30.26 in /  1024.6 hPa NNE 2.6 mph /  4.2 km/h 6.0 mph /  9.7 km/h 57 % 0.00 in /  0 mm
11:50 56.2 °F /  13.4 °C 40.2 °F /  4.6 °C 30.25 in /  1024.3 hPa ENE 0.3 mph /  0.5 km/h 1.2 mph /  1.9 km/h 55 % 0.00 in /  0 mm
11:55 57.3 °F /  14.1 °C 40.8 °F /  4.9 °C 30.25 in /  1024.3 hPa ENE 0.7 mph /  1.1 km/h 6.9 mph /  11.1 km/h 54 % 0.00 in /  0 mm
12:01 57.8 °F /  14.3 °C 40.3 °F /  4.6 °C 30.25 in /  1024.3 hPa NNE 1.1 mph /  1.8 km/h 2.3 mph /  3.7 km/h 52 % 0.00 in /  0 mm
12:06 58.4 °F /  14.7 °C 41.3 °F /  5.2 °C 30.25 in /  1024.3 hPa North 3.2 mph /  5.1 km/h 5.8 mph /  9.3 km/h 53 % 0.00 in /  0 mm
12:11 58.6 °F /  14.8 °C 39.5 °F /  4.2 °C 30.25 in /  1024.3 hPa North 3.4 mph /  5.5 km/h 5.8 mph /  9.3 km/h 49 % 0.00 in /  0 mm
12:16 58.6 °F /  14.8 °C 41.5 °F /  5.3 °C 30.25 in /  1024.3 hPa NNE 1.3 mph /  2.1 km/h 3.5 mph /  5.6 km/h 53 % 0.00 in /  0 mm
12:21 58.7 °F /  14.8 °C 39.6 °F /  4.2 °C 30.25 in /  1024.3 hPa NNE 2.8 mph /  4.5 km/h 4.6 mph /  7.4 km/h 49 % 0.00 in /  0 mm
12:24 58.7 °F /  14.8 °C 40.6 °F /  4.8 °C 30.25 in /  1024.3 hPa NNE 0.7 mph /  1.1 km/h 2.3 mph /  3.7 km/h 51 % 0.00 in /  0 mm
12:29 58.6 °F /  14.8 °C 41.0 °F /  5 °C 30.25 in /  1024.3 hPa NNE 4.1 mph /  6.6 km/h 5.0 mph /  8 km/h 52 % 0.00 in /  0 mm
12:34 58.6 °F /  14.8 °C 39.5 °F /  4.2 °C 30.25 in /  1024.3 hPa NW 2.3 mph /  3.7 km/h 4.0 mph /  6.4 km/h 49 % 0.00 in /  0 mm
12:39 58.5 °F /  14.7 °C 40.9 °F /  4.9 °C 30.25 in /  1024.3 hPa NNW 0.1 mph /  0.2 km/h 2.3 mph /  3.7 km/h 52 % 0.00 in /  0 mm
12:44 58.5 °F /  14.7 °C 39.4 °F /  4.1 °C 30.24 in /  1023.9 hPa NNE 2.0 mph /  3.2 km/h 4.0 mph /  6.4 km/h 49 % 0.00 in /  0 mm
12:49 58.3 °F /  14.6 °C 39.2 °F /  4 °C 30.24 in /  1023.9 hPa NNW 1.3 mph /  2.1 km/h 3.5 mph /  5.6 km/h 49 % 0.00 in /  0 mm
12:54 58.1 °F /  14.5 °C 39.0 °F /  3.9 °C 30.24 in /  1023.9 hPa North 0.6 mph /  1 km/h 4.6 mph /  7.4 km/h 49 % 0.00 in /  0 mm
12:59 58.2 °F /  14.6 °C 39.6 °F /  4.2 °C 30.24 in /  1023.9 hPa WNW 1.9 mph /  3.1 km/h 4.0 mph /  6.4 km/h 50 % 0.00 in /  0 mm
13:00 58.2 °F /  14.6 °C 39.6 °F /  4.2 °C 30.24 in /  1023.9 hPa WNW 2.6 mph /  4.2 km/h 3.5 mph /  5.6 km/h 50 % 0.00 in /  0 mm
13:05 58.3 °F /  14.6 °C 39.7 °F /  4.3 °C 30.26 in /  1024.6 hPa WSW 2.2 mph /  3.5 km/h 4.6 mph /  7.4 km/h 50 % 0.00 in /  0 mm
13:10 58.3 °F /  14.6 °C 41.2 °F /  5.1 °C 30.24 in /  1023.9 hPa North 1.2 mph /  1.9 km/h 3.5 mph /  5.6 km/h 53 % 0.00 in /  0 mm
13:15 58.2 °F /  14.6 °C 38.6 °F /  3.7 °C 30.23 in /  1023.6 hPa North 1.4 mph /  2.3 km/h 3.0 mph /  4.8 km/h 48 % 0.00 in /  0 mm
13:20 58.2 °F /  14.6 °C 38.1 °F /  3.4 °C 30.24 in /  1023.9 hPa North 0.3 mph /  0.5 km/h 2.3 mph /  3.7 km/h 47 % 0.00 in /  0 mm
13:25 58.5 °F /  14.7 °C 41.9 °F /  5.5 °C 30.23 in /  1023.6 hPa NNE 0.6 mph /  1 km/h 2.3 mph /  3.7 km/h 54 % 0.00 in /  0 mm
13:30 58.7 °F /  14.8 °C 39.0 °F /  3.9 °C 30.23 in /  1023.6 hPa Calm     48 % 0.00 in /  0 mm
13:36 59.1 °F /  15.1 °C 41.9 °F /  5.5 °C 30.23 in /  1023.6 hPa NNW 2.0 mph /  3.2 km/h 5.0 mph /  8 km/h 53 % 0.00 in /  0 mm
13:41 59.3 °F /  15.2 °C 40.1 °F /  4.5 °C 30.23 in /  1023.6 hPa WNW 0.8 mph /  1.3 km/h 4.0 mph /  6.4 km/h 49 % 0.00 in /  0 mm
13:46 59.3 °F /  15.2 °C 38.5 °F /  3.6 °C 30.22 in /  1023.2 hPa West 0.6 mph /  1 km/h 3.5 mph /  5.6 km/h 46 % 0.00 in /  0 mm
13:51 59.4 °F /  15.2 °C 40.2 °F /  4.6 °C 30.23 in /  1023.6 hPa West 1.8 mph /  2.9 km/h 3.5 mph /  5.6 km/h 49 % 0.00 in /  0 mm
13:56 59.5 °F /  15.3 °C 40.8 °F /  4.9 °C 30.23 in /  1023.6 hPa WNW 2.8 mph /  4.5 km/h 4.6 mph /  7.4 km/h 50 % 0.00 in /  0 mm
14:01 59.5 °F /  15.3 °C 39.8 °F /  4.3 °C 30.23 in /  1023.6 hPa West 1.6 mph /  2.6 km/h 3.5 mph /  5.6 km/h 48 % 0.00 in /  0 mm
14:06 59.6 °F /  15.3 °C 40.4 °F /  4.7 °C 30.23 in /  1023.6 hPa West 0.7 mph /  1.1 km/h 1.2 mph /  1.9 km/h 49 % 0.00 in /  0 mm
14:11 59.7 °F /  15.4 °C 40.5 °F /  4.7 °C 30.23 in /  1023.6 hPa WSW 3.4 mph /  5.5 km/h 7.0 mph /  11.3 km/h 49 % 0.00 in /  0 mm
14:16 59.8 °F /  15.4 °C 40.1 °F /  4.5 °C 30.22 in /  1023.2 hPa SW 4.9 mph /  7.9 km/h 6.9 mph /  11.1 km/h 48 % 0.00 in /  0 mm
14:21 59.8 °F /  15.4 °C 39.5 °F /  4.2 °C 30.22 in /  1023.2 hPa WSW 1.0 mph /  1.6 km/h 2.3 mph /  3.7 km/h 47 % 0.00 in /  0 mm
14:26 59.8 °F /  15.4 °C 40.1 °F /  4.5 °C 30.22 in /  1023.2 hPa WSW 0.4 mph /  0.6 km/h 4.6 mph /  7.4 km/h 48 % 0.00 in /  0 mm
14:31 59.9 °F /  15.5 °C 39.6 °F /  4.2 °C 30.21 in /  1022.9 hPa WSW 1.8 mph /  2.9 km/h 2.3 mph /  3.7 km/h 47 % 0.00 in /  0 mm
14:33 59.9 °F /  15.5 °C 39.1 °F /  3.9 °C 30.22 in /  1023.2 hPa WSW 2.4 mph /  3.9 km/h 6.9 mph /  11.1 km/h 46 % 0.00 in /  0 mm
14:38 60.0 °F /  15.6 °C 39.7 °F /  4.3 °C 30.22 in /  1023.2 hPa WSW 2.3 mph /  3.7 km/h 3.5 mph /  5.6 km/h 47 % 0.00 in /  0 mm
14:43 60.0 °F /  15.6 °C 40.2 °F /  4.6 °C 30.22 in /  1023.2 hPa SW 0.7 mph /  1.1 km/h 4.6 mph /  7.4 km/h 48 % 0.00 in /  0 mm
14:48 60.0 °F /  15.6 °C 39.1 °F /  3.9 °C 30.21 in /  1022.9 hPa WNW 1.9 mph /  3.1 km/h 5.0 mph /  8 km/h 46 % 0.00 in /  0 mm
14:53 60.0 °F /  15.6 °C 40.2 °F /  4.6 °C 30.21 in /  1022.9 hPa WNW 0.2 mph /  0.3 km/h 1.2 mph /  1.9 km/h 48 % 0.00 in /  0 mm
14:58 59.9 °F /  15.5 °C 40.1 °F /  4.5 °C 30.21 in /  1022.9 hPa SW 0.7 mph /  1.1 km/h 6.9 mph /  11.1 km/h 48 % 0.00 in /  0 mm
15:03 59.9 °F /  15.5 °C 39.1 °F /  3.9 °C 30.21 in /  1022.9 hPa SSW 3.4 mph /  5.5 km/h 4.6 mph /  7.4 km/h 46 % 0.00 in /  0 mm
15:08 59.8 °F /  15.4 °C 39.0 °F /  3.9 °C 30.21 in /  1022.9 hPa WNW 1.2 mph /  1.9 km/h 3.5 mph /  5.6 km/h 46 % 0.00 in /  0 mm
15:13 59.7 °F /  15.4 °C 38.9 °F /  3.8 °C 30.21 in /  1022.9 hPa West 3.5 mph /  5.6 km/h 6.9 mph /  11.1 km/h 46 % 0.00 in /  0 mm
15:18 59.5 °F /  15.3 °C 38.7 °F /  3.7 °C 30.20 in /  1022.6 hPa WSW 1.0 mph /  1.6 km/h 2.3 mph /  3.7 km/h 46 % 0.00 in /  0 mm
15:23 59.4 °F /  15.2 °C 39.7 °F /  4.3 °C 30.20 in /  1022.6 hPa SW 0.3 mph /  0.5 km/h 3.5 mph /  5.6 km/h 48 % 0.00 in /  0 mm
15:28 59.2 °F /  15.1 °C 37.3 °F /  2.9 °C 30.20 in /  1022.6 hPa NW 2.2 mph /  3.5 km/h 4.0 mph /  6.4 km/h 44 % 0.00 in /  0 mm
15:33 58.9 °F /  14.9 °C 37.0 °F /  2.8 °C 30.20 in /  1022.6 hPa WSW 3.5 mph /  5.6 km/h 5.8 mph /  9.3 km/h 44 % 0.00 in /  0 mm
15:38 58.7 °F /  14.8 °C 37.4 °F /  3 °C 30.20 in /  1022.6 hPa WSW 0.8 mph /  1.3 km/h 2.3 mph /  3.7 km/h 45 % 0.00 in /  0 mm
15:43 58.5 °F /  14.7 °C 37.8 °F /  3.2 °C 30.20 in /  1022.6 hPa WNW 1.6 mph /  2.6 km/h 5.0 mph /  8 km/h 46 % 0.00 in /  0 mm
15:48 58.2 °F /  14.6 °C 37.5 °F /  3.1 °C 30.19 in /  1022.2 hPa WNW 2.7 mph /  4.3 km/h 5.8 mph /  9.3 km/h 46 % 0.00 in /  0 mm
15:53 58.0 °F /  14.4 °C 37.3 °F /  2.9 °C 30.20 in /  1022.6 hPa WSW 0.8 mph /  1.3 km/h 3.5 mph /  5.6 km/h 46 % 0.00 in /  0 mm
15:58 57.8 °F /  14.3 °C 36.6 °F /  2.6 °C 30.20 in /  1022.6 hPa WSW 2.2 mph /  3.5 km/h 4.6 mph /  7.4 km/h 45 % 0.00 in /  0 mm
16:03 57.7 °F /  14.3 °C 37.6 °F /  3.1 °C 30.19 in /  1022.2 hPa SW 1.5 mph /  2.4 km/h 4.6 mph /  7.4 km/h 47 % 0.00 in /  0 mm
16:09 57.4 °F /  14.1 °C 36.8 °F /  2.7 °C 30.19 in /  1022.2 hPa SW 1.7 mph /  2.7 km/h 3.5 mph /  5.6 km/h 46 % 0.00 in /  0 mm
16:14 57.3 °F /  14.1 °C 37.2 °F /  2.9 °C 30.19 in /  1022.2 hPa WSW 2.3 mph /  3.7 km/h 3.5 mph /  5.6 km/h 47 % 0.00 in /  0 mm
16:19 57.2 °F /  14 °C 37.1 °F /  2.8 °C 30.19 in /  1022.2 hPa Calm   1.0 mph /  1.6 km/h 47 % 0.00 in /  0 mm
16:24 57.1 °F /  13.9 °C 37.0 °F /  2.8 °C 30.19 in /  1022.2 hPa WSW 2.4 mph /  3.9 km/h 3.5 mph /  5.6 km/h 47 % 0.00 in /  0 mm
16:29 56.9 °F /  13.8 °C 37.4 °F /  3 °C 30.19 in /  1022.2 hPa SSW 3.7 mph /  6 km/h 4.6 mph /  7.4 km/h 48 % 0.00 in /  0 mm
16:34 56.8 °F /  13.8 °C 36.8 °F /  2.7 °C 30.20 in /  1022.6 hPa WSW 4.0 mph /  6.4 km/h 5.8 mph /  9.3 km/h 47 % 0.00 in /  0 mm
16:39 56.7 °F /  13.7 °C 37.2 °F /  2.9 °C 30.19 in /  1022.2 hPa Calm   1.0 mph /  1.6 km/h 48 % 0.00 in /  0 mm
16:41 56.7 °F /  13.7 °C 36.7 °F /  2.6 °C 30.19 in /  1022.2 hPa WSW 0.3 mph /  0.5 km/h 1.2 mph /  1.9 km/h 47 % 0.00 in /  0 mm
16:46 56.6 °F /  13.7 °C 37.6 °F /  3.1 °C 30.18 in /  1021.9 hPa West 1.9 mph /  3.1 km/h 3.5 mph /  5.6 km/h 49 % 0.00 in /  0 mm
16:51 56.5 °F /  13.6 °C 37.6 °F /  3.1 °C 30.18 in /  1021.9 hPa Calm   1.2 mph /  1.9 km/h 49 % 0.00 in /  0 mm
16:56 56.4 °F /  13.6 °C 37.5 °F /  3.1 °C 30.18 in /  1021.9 hPa West 0.4 mph /  0.6 km/h 1.2 mph /  1.9 km/h 49 % 0.00 in /  0 mm
17:01 56.3 °F /  13.5 °C 37.4 °F /  3 °C 30.18 in /  1021.9 hPa Calm     49 % 0.00 in /  0 mm
17:06 56.3 °F /  13.5 °C 37.9 °F /  3.3 °C 30.18 in /  1021.9 hPa West 0.1 mph /  0.2 km/h 1.0 mph /  1.6 km/h 50 % 0.00 in /  0 mm
17:11 56.2 °F /  13.4 °C 38.3 °F /  3.5 °C 30.18 in /  1021.9 hPa Calm     51 % 0.00 in /  0 mm
17:16 56.1 °F /  13.4 °C 38.2 °F /  3.4 °C 30.18 in /  1021.9 hPa Calm     51 % 0.00 in /  0 mm
17:21 56.0 °F /  13.3 °C 38.6 °F /  3.7 °C 30.18 in /  1021.9 hPa Calm     52 % 0.00 in /  0 mm
17:26 55.9 °F /  13.3 °C 39.5 °F /  4.2 °C 30.18 in /  1021.9 hPa Calm     54 % 0.00 in /  0 mm
17:32 55.8 °F /  13.2 °C 39.4 °F /  4.1 °C 30.18 in /  1021.9 hPa Calm     54 % 0.00 in /  0 mm
17:37 55.6 °F /  13.1 °C 40.1 °F /  4.5 °C 30.19 in /  1022.2 hPa Calm     56 % 0.00 in /  0 mm
17:42 55.5 °F /  13.1 °C 40.5 °F /  4.7 °C 30.18 in /  1021.9 hPa Calm     57 % 0.00 in /  0 mm
17:47 55.3 °F /  12.9 °C 41.2 °F /  5.1 °C 30.19 in /  1022.2 hPa Calm   1.2 mph /  1.9 km/h 59 % 0.00 in /  0 mm
17:52 55.0 °F /  12.8 °C 41.4 °F /  5.2 °C 30.19 in /  1022.2 hPa Calm     60 % 0.00 in /  0 mm
17:57 54.7 °F /  12.6 °C 41.9 °F /  5.5 °C 30.18 in /  1021.9 hPa Calm     62 % 0.00 in /  0 mm
18:02 54.4 °F /  12.4 °C 42.1 °F /  5.6 °C 30.19 in /  1022.2 hPa Calm     63 % 0.00 in /  0 mm
18:06 54.1 °F /  12.3 °C 42.2 °F /  5.7 °C 30.19 in /  1022.2 hPa Calm     64 % 0.00 in /  0 mm
18:11 53.8 °F /  12.1 °C 41.9 °F /  5.5 °C 30.19 in /  1022.2 hPa Calm     64 % 0.00 in /  0 mm
18:16 53.5 °F /  11.9 °C 41.6 °F /  5.3 °C 30.19 in /  1022.2 hPa Calm   1.2 mph /  1.9 km/h 64 % 0.00 in /  0 mm
18:21 53.1 °F /  11.7 °C 40.8 °F /  4.9 °C 30.19 in /  1022.2 hPa West 0.7 mph /  1.1 km/h 1.2 mph /  1.9 km/h 63 % 0.00 in /  0 mm
18:27 52.9 °F /  11.6 °C 41.0 °F /  5 °C 30.19 in /  1022.2 hPa Calm     64 % 0.00 in /  0 mm
18:32 52.6 °F /  11.4 °C 40.8 °F /  4.9 °C 30.19 in /  1022.2 hPa Calm   1.2 mph /  1.9 km/h 64 % 0.00 in /  0 mm
18:37 52.3 °F /  11.3 °C 40.9 °F /  4.9 °C 30.19 in /  1022.2 hPa Calm     65 % 0.00 in /  0 mm
18:42 52.0 °F /  11.1 °C 41.0 °F /  5 °C 30.19 in /  1022.2 hPa Calm     66 % 0.00 in /  0 mm
18:47 51.8 °F /  11 °C 40.8 °F /  4.9 °C 30.19 in /  1022.2 hPa Calm     66 % 0.00 in /  0 mm
18:57 51.2 °F /  10.7 °C 41.0 °F /  5 °C 30.20 in /  1022.6 hPa Calm     68 % 0.00 in /  0 mm
19:02 51.0 °F /  10.6 °C 41.2 °F /  5.1 °C 30.20 in /  1022.6 hPa Calm     69 % 0.00 in /  0 mm
19:07 50.7 °F /  10.4 °C 41.3 °F /  5.2 °C 30.20 in /  1022.6 hPa Calm     70 % 0.00 in /  0 mm
19:12 50.5 °F /  10.3 °C 41.1 °F /  5.1 °C 30.21 in /  1022.9 hPa West 0.2 mph /  0.3 km/h 1.0 mph /  1.6 km/h 70 % 0.00 in /  0 mm
19:17 50.3 °F /  10.2 °C 40.9 °F /  4.9 °C 30.21 in /  1022.9 hPa Calm     70 % 0.00 in /  0 mm
19:22 50.0 °F /  10 °C 41.0 °F /  5 °C 30.21 in /  1022.9 hPa Calm   1.2 mph /  1.9 km/h 71 % 0.00 in /  0 mm
19:27 49.8 °F /  9.9 °C 40.8 °F /  4.9 °C 30.21 in /  1022.9 hPa Calm     71 % 0.00 in /  0 mm
19:32 49.7 °F /  9.8 °C 41.0 °F /  5 °C 30.21 in /  1022.9 hPa Calm     72 % 0.00 in /  0 mm
19:37 49.5 °F /  9.7 °C 40.8 °F /  4.9 °C 30.21 in /  1022.9 hPa Calm     72 % 0.00 in /  0 mm
19:42 49.4 °F /  9.7 °C 41.1 °F /  5.1 °C 30.21 in /  1022.9 hPa Calm     73 % 0.00 in /  0 mm
19:47 49.3 °F /  9.6 °C 41.0 °F /  5 °C 30.21 in /  1022.9 hPa Calm     73 % 0.00 in /  0 mm
19:52 49.2 °F /  9.6 °C 40.9 °F /  4.9 °C 30.22 in /  1023.2 hPa Calm   1.2 mph /  1.9 km/h 73 % 0.00 in /  0 mm
19:57 49.1 °F /  9.5 °C 40.8 °F /  4.9 °C 30.22 in /  1023.2 hPa West 0.1 mph /  0.2 km/h 1.2 mph /  1.9 km/h 73 % 0.00 in /  0 mm
20:02 49.0 °F /  9.4 °C 41.1 °F /  5.1 °C 30.21 in /  1022.9 hPa West 0.1 mph /  0.2 km/h 1.2 mph /  1.9 km/h 74 % 0.00 in /  0 mm
20:07 49.0 °F /  9.4 °C 41.1 °F /  5.1 °C 30.21 in /  1022.9 hPa Calm   1.2 mph /  1.9 km/h 74 % 0.00 in /  0 mm
20:08 48.9 °F /  9.4 °C 41.0 °F /  5 °C 30.21 in /  1022.9 hPa Calm   1.2 mph /  1.9 km/h 74 % 0.00 in /  0 mm
20:13 48.9 °F /  9.4 °C 41.0 °F /  5 °C 30.21 in /  1022.9 hPa West 0.8 mph /  1.3 km/h 2.3 mph /  3.7 km/h 74 % 0.00 in /  0 mm
20:18 48.8 °F /  9.3 °C 40.9 °F /  4.9 °C 30.21 in /  1022.9 hPa WSW 0.5 mph /  0.8 km/h 2.3 mph /  3.7 km/h 74 % 0.00 in /  0 mm
20:23 48.8 °F /  9.3 °C 40.9 °F /  4.9 °C 30.21 in /  1022.9 hPa SW 0.4 mph /  0.6 km/h 3.5 mph /  5.6 km/h 74 % 0.00 in /  0 mm
20:28 48.8 °F /  9.3 °C 40.9 °F /  4.9 °C 30.21 in /  1022.9 hPa SW 0.1 mph /  0.2 km/h 1.2 mph /  1.9 km/h 74 % 0.00 in /  0 mm
20:34 48.8 °F /  9.3 °C 40.9 °F /  4.9 °C 30.21 in /  1022.9 hPa SW 0.5 mph /  0.8 km/h 2.3 mph /  3.7 km/h 74 % 0.00 in /  0 mm
20:39 48.8 °F /  9.3 °C 41.2 °F /  5.1 °C 30.21 in /  1022.9 hPa SW 0.2 mph /  0.3 km/h 1.2 mph /  1.9 km/h 75 % 0.00 in /  0 mm
20:44 48.9 °F /  9.4 °C 41.3 °F /  5.2 °C 30.21 in /  1022.9 hPa SW 0.2 mph /  0.3 km/h 2.3 mph /  3.7 km/h 75 % 0.00 in /  0 mm
20:49 48.9 °F /  9.4 °C 41.3 °F /  5.2 °C 30.21 in /  1022.9 hPa Calm   1.2 mph /  1.9 km/h 75 % 0.00 in /  0 mm
20:54 49.0 °F /  9.4 °C 41.4 °F /  5.2 °C 30.21 in /  1022.9 hPa Calm   2.3 mph /  3.7 km/h 75 % 0.00 in /  0 mm
20:59 49.1 °F /  9.5 °C 41.5 °F /  5.3 °C 30.22 in /  1023.2 hPa Calm     75 % 0.00 in /  0 mm
21:04 49.2 °F /  9.6 °C 41.6 °F /  5.3 °C 30.22 in /  1023.2 hPa Calm   1.0 mph /  1.6 km/h 75 % 0.00 in /  0 mm
21:09 49.3 °F /  9.6 °C 41.7 °F /  5.4 °C 30.22 in /  1023.2 hPa SW 0.9 mph /  1.4 km/h 2.3 mph /  3.7 km/h 75 % 0.00 in /  0 mm
21:14 49.3 °F /  9.6 °C 41.7 °F /  5.4 °C 30.22 in /  1023.2 hPa SW 0.1 mph /  0.2 km/h 1.2 mph /  1.9 km/h 75 % 0.00 in /  0 mm
21:19 49.4 °F /  9.7 °C 41.8 °F /  5.4 °C 30.22 in /  1023.2 hPa SW 0.1 mph /  0.2 km/h   75 % 0.00 in /  0 mm
21:24 49.4 °F /  9.7 °C 41.8 °F /  5.4 °C 30.21 in /  1022.9 hPa Calm   1.0 mph /  1.6 km/h 75 % 0.00 in /  0 mm
21:29 49.4 °F /  9.7 °C 41.8 °F /  5.4 °C 30.21 in /  1022.9 hPa Calm     75 % 0.00 in /  0 mm
21:34 49.5 °F /  9.7 °C 41.9 °F /  5.5 °C 30.22 in /  1023.2 hPa SW 0.1 mph /  0.2 km/h 3.0 mph /  4.8 km/h 75 % 0.00 in /  0 mm
21:39 49.5 °F /  9.7 °C 41.9 °F /  5.5 °C 30.22 in /  1023.2 hPa SW 0.6 mph /  1 km/h 2.0 mph /  3.2 km/h 75 % 0.00 in /  0 mm
21:44 49.5 °F /  9.7 °C 41.9 °F /  5.5 °C 30.22 in /  1023.2 hPa SW 0.8 mph /  1.3 km/h 2.0 mph /  3.2 km/h 75 % 0.00 in /  0 mm
21:49 49.6 °F /  9.8 °C 42.3 °F /  5.7 °C 30.22 in /  1023.2 hPa SW 0.2 mph /  0.3 km/h 2.0 mph /  3.2 km/h 76 % 0.00 in /  0 mm
21:54 49.6 °F /  9.8 °C 42.3 °F /  5.7 °C 30.21 in /  1022.9 hPa SW 0.9 mph /  1.4 km/h 2.3 mph /  3.7 km/h 76 % 0.00 in /  0 mm
21:59 49.7 °F /  9.8 °C 42.8 °F /  6 °C 30.21 in /  1022.9 hPa SW 0.3 mph /  0.5 km/h 1.2 mph /  1.9 km/h 77 % 0.00 in /  0 mm
22:04 49.8 °F /  9.9 °C 42.9 °F /  6.1 °C 30.22 in /  1023.2 hPa SW 0.2 mph /  0.3 km/h 2.3 mph /  3.7 km/h 77 % 0.00 in /  0 mm
22:09 49.9 °F /  9.9 °C 43.3 °F /  6.3 °C 30.22 in /  1023.2 hPa SW 0.2 mph /  0.3 km/h 1.2 mph /  1.9 km/h 78 % 0.00 in /  0 mm
22:14 49.9 °F /  9.9 °C 43.3 °F /  6.3 °C 30.22 in /  1023.2 hPa WSW 1.6 mph /  2.6 km/h 4.6 mph /  7.4 km/h 78 % 0.00 in /  0 mm
22:19 50.0 °F /  10 °C 43.4 °F /  6.3 °C 30.22 in /  1023.2 hPa SW 1.2 mph /  1.9 km/h 3.5 mph /  5.6 km/h 78 % 0.00 in /  0 mm
22:24 50.1 °F /  10.1 °C 43.8 °F /  6.6 °C 30.22 in /  1023.2 hPa SW 0.1 mph /  0.2 km/h 5.8 mph /  9.3 km/h 79 % 0.00 in /  0 mm
22:29 50.2 °F /  10.1 °C 43.6 °F /  6.4 °C 30.22 in /  1023.2 hPa WSW 2.7 mph /  4.3 km/h 6.9 mph /  11.1 km/h 78 % 0.00 in /  0 mm
22:34 50.3 °F /  10.2 °C 43.7 °F /  6.5 °C 30.22 in /  1023.2 hPa SW 0.1 mph /  0.2 km/h 2.3 mph /  3.7 km/h 78 % 0.00 in /  0 mm
22:39 50.4 °F /  10.2 °C 43.8 °F /  6.6 °C 30.29 in /  1025.6 hPa SW 0.3 mph /  0.5 km/h 1.2 mph /  1.9 km/h 78 % 0.00 in /  0 mm
22:44 50.4 °F /  10.2 °C 44.1 °F /  6.7 °C 30.29 in /  1025.6 hPa WSW 1.3 mph /  2.1 km/h 3.5 mph /  5.6 km/h 79 % 0.00 in /  0 mm
22:49 50.5 °F /  10.3 °C 44.2 °F /  6.8 °C 30.28 in /  1025.3 hPa SW 0.9 mph /  1.4 km/h 3.5 mph /  5.6 km/h 79 % 0.00 in /  0 mm
22:54 50.6 °F /  10.3 °C 44.3 °F /  6.8 °C 30.29 in /  1025.6 hPa WSW 1.1 mph /  1.8 km/h 2.3 mph /  3.7 km/h 79 % 0.00 in /  0 mm
22:59 50.6 °F /  10.3 °C 44.0 °F /  6.7 °C 30.29 in /  1025.6 hPa SW 1.1 mph /  1.8 km/h 3.5 mph /  5.6 km/h 78 % 0.00 in /  0 mm
23:04 50.7 °F /  10.4 °C 44.1 °F /  6.7 °C 30.28 in /  1025.3 hPa WSW 0.9 mph /  1.4 km/h 5.8 mph /  9.3 km/h 78 % 0.00 in /  0 mm
23:09 50.6 °F /  10.3 °C 44.0 °F /  6.7 °C 30.28 in /  1025.3 hPa WSW 0.2 mph /  0.3 km/h 1.2 mph /  1.9 km/h 78 % 0.00 in /  0 mm
23:15 50.6 °F /  10.3 °C 44.0 °F /  6.7 °C 30.28 in /  1025.3 hPa SW 2.3 mph /  3.7 km/h 6.0 mph /  9.7 km/h 78 % 0.00 in /  0 mm
23:20 50.6 °F /  10.3 °C 44.0 °F /  6.7 °C 30.28 in /  1025.3 hPa WSW 2.0 mph /  3.2 km/h 6.0 mph /  9.7 km/h 78 % 0.00 in /  0 mm
23:23 50.6 °F /  10.3 °C 44.0 °F /  6.7 °C 30.07 in /  1018.2 hPa WSW 1.2 mph /  1.9 km/h 2.3 mph /  3.7 km/h 78 % 0.00 in /  0 mm
23:26 50.6 °F /  10.3 °C 44.0 °F /  6.7 °C 30.29 in /  1025.6 hPa WSW 0.1 mph /  0.2 km/h 1.2 mph /  1.9 km/h 78 % 0.00 in /  0 mm
23:27 50.6 °F /  10.3 °C 44.0 °F /  6.7 °C 30.28 in /  1025.3 hPa WSW 0.2 mph /  0.3 km/h 2.3 mph /  3.7 km/h 78 % 0.00 in /  0 mm
23:30 50.6 °F /  10.3 °C 44.0 °F /  6.7 °C 30.06 in /  1017.8 hPa Calm   1.2 mph /  1.9 km/h 78 % 0.00 in /  0 mm
23:35 50.5 °F /  10.3 °C 43.9 °F /  6.6 °C 30.28 in /  1025.3 hPa Calm   2.3 mph /  3.7 km/h 78 % 0.00 in /  0 mm
23:40 50.5 °F /  10.3 °C 43.9 °F /  6.6 °C 30.06 in /  1017.8 hPa WSW 0.7 mph /  1.1 km/h 2.3 mph /  3.7 km/h 78 % 0.00 in /  0 mm
23:45 50.4 °F /  10.2 °C 43.8 °F /  6.6 °C 30.28 in /  1025.3 hPa WSW 0.4 mph /  0.6 km/h 1.2 mph /  1.9 km/h 78 % 0.00 in /  0 mm
23:50 50.3 °F /  10.2 °C 43.7 °F /  6.5 °C 30.27 in /  1024.9 hPa WSW 0.7 mph /  1.1 km/h 4.6 mph /  7.4 km/h 78 % 0.00 in /  0 mm
23:55 50.3 °F /  10.2 °C 43.4 °F /  6.3 °C 30.28 in /  1025.3 hPa SW 0.7 mph /  1.1 km/h 3.5 mph /  5.6 km/h 77 % 0.00 in /  0 mm
23:56 50.3 °F /  10.2 °C 43.4 °F /  6.3 °C 30.30 in /  1026 hPa SW 0.2 mph /  0.3 km/h 3.5 mph /  5.6 km/h 77 % 0.00 in /  0 mm
Crab Meadow Weather
Compliments of Weather Underground - 3 mb

Script developed by  Jim McMurry - jmcmurry@mwt.net Adapted for the template by  Wim van der Kuil - Leuven-Template.eu

Astronomy: Space missions to Mars suggest that it once had water.